KBIE/BIE METAR and TAF weather

Enter ICAO airport designator
Station Type Date Time Source
KBIE METAR 2019/06/16 06:35 UTC NOAA

KBIE 160635Z AUTO 00000KT 10SM CLR 19/18 A2985 RMK AO2 T01870176


Station Type Date Time Source
KBIE Decoded METAR 2019/06/16 06:35 UTC NOAA

Beatrice Municipal, NE, United States (KBIE) 40-18N 096-45W
Jun 16, 2019 - 02:35 AM EDT / 2019.06.16 0635 UTC
Wind: Calm:0
Visibility: 10 mile(s):0
Sky conditions: clear
Temperature: 65.7 F (18.7 C)
Dew Point: 63.7 F (17.6 C)
Relative Humidity: 93%
Pressure (altimeter): 29.85 in. Hg (1010 hPa)
ob: KBIE 160635Z AUTO 00000KT 10SM CLR 19/18 A2985 RMK AO2 T01870176
cycle: 6

Station Type Date Time Source
KBIE TAF UTC NOAA

Error!

Example: see airport list